sensor_id;sensor_type;location;lat;lon;timestamp;pressure;altitude;pressure_sealevel;temperature;humidity
36354;BME280;22383;51.114;13.666;2023-04-27T00:01:40;67369.53;;;1.97;100.00
36354;BME280;22383;51.114;13.666;2023-04-27T00:04:08;67411.28;;;1.97;100.00
36354;BME280;22383;51.114;13.666;2023-04-27T00:06:35;67403.94;;;1.90;100.00
36354;BME280;22383;51.114;13.666;2023-04-27T00:09:02;67400.94;;;1.85;100.00
36354;BME280;22383;51.114;13.666;2023-04-27T00:11:30;67405.06;;;1.91;100.00
36354;BME280;22383;51.114;13.666;2023-04-27T00:13:57;67405.22;;;1.86;100.00
36354;BME280;22383;51.114;13.666;2023-04-27T00:16:24;67403.72;;;1.87;100.00
36354;BME280;22383;51.114;13.666;2023-04-27T00:18:52;67401.47;;;1.85;100.00
36354;BME280;22383;51.114;13.666;2023-04-27T00:21:19;67402.97;;;1.84;100.00
36354;BME280;22383;51.114;13.666;2023-04-27T00:23:46;67401.84;;;1.83;100.00
36354;BME280;22383;51.114;13.666;2023-04-27T00:26:13;67348.34;;;1.80;100.00
36354;BME280;22383;51.114;13.666;2023-04-27T00:28:43;67393.03;;;1.78;100.00
36354;BME280;22383;51.114;13.666;2023-04-27T00:31:10;67393.41;;;1.76;100.00
36354;BME280;22383;51.114;13.666;2023-04-27T00:33:37;67387.63;;;1.75;100.00
36354;BME280;22383;51.114;13.666;2023-04-27T00:36:04;67384.59;;;1.70;100.00
36354;BME280;22383;51.114;13.666;2023-04-27T00:38:32;67386.28;;;1.72;100.00
36354;BME280;22383;51.114;13.666;2023-04-27T00:41:03;67390.81;;;1.76;100.00
36354;BME280;22383;51.114;13.666;2023-04-27T00:43:30;67384.25;;;1.72;100.00
36354;BME280;22383;51.114;13.666;2023-04-27T00:45:58;67391.16;;;1.74;100.00
36354;BME280;22383;51.114;13.666;2023-04-27T00:48:26;67343.63;;;1.73;100.00
36354;BME280;22383;51.114;13.666;2023-04-27T00:50:53;67387.97;;;1.73;100.00
36354;BME280;22383;51.114;13.666;2023-04-27T00:53:20;67382.00;;;1.70;100.00
36354;BME280;22383;51.114;13.666;2023-04-27T00:55:48;67389.09;;;1.74;100.00
36354;BME280;22383;51.114;13.666;2023-04-27T00:58:15;67386.50;;;1.74;100.00
36354;BME280;22383;51.114;13.666;2023-04-27T01:00:43;67397.34;;;1.79;100.00
36354;BME280;22383;51.114;13.666;2023-04-27T01:03:10;67344.97;;;1.77;100.00
36354;BME280;22383;51.114;13.666;2023-04-27T01:05:38;67387.78;;;1.70;100.00
36354;BME280;22383;51.114;13.666;2023-04-27T01:08:07;67378.41;;;1.64;100.00
36354;BME280;22383;51.114;13.666;2023-04-27T01:10:34;67374.28;;;1.58;100.00
36354;BME280;22383;51.114;13.666;2023-04-27T01:13:01;67316.28;;;1.50;100.00
36354;BME280;22383;51.114;13.666;2023-04-27T01:15:30;67360.41;;;1.48;100.00
36354;BME280;22383;51.114;13.666;2023-04-27T01:17:58;67351.25;;;1.44;100.00
36354;BME280;22383;51.114;13.666;2023-04-27T01:20:29;67358.16;;;1.46;100.00
36354;BME280;22383;51.114;13.666;2023-04-27T01:22:58;67351.97;;;1.40;100.00
36354;BME280;22383;51.114;13.666;2023-04-27T01:25:25;67298.84;;;1.35;100.00
36354;BME280;22383;51.114;13.666;2023-04-27T01:27:52;67336.41;;;1.28;100.00
36354;BME280;22383;51.114;13.666;2023-04-27T01:30:20;67287.59;;;1.24;100.00
36354;BME280;22383;51.114;13.666;2023-04-27T01:32:51;67289.28;;;1.26;100.00
36354;BME280;22383;51.114;13.666;2023-04-27T01:35:18;67336.00;;;1.23;100.00
36354;BME280;22383;51.114;13.666;2023-04-27T01:37:45;67333.19;;;1.21;100.00
36354;BME280;22383;51.114;13.666;2023-04-27T01:40:13;67329.25;;;1.17;100.00
36354;BME280;22383;51.114;13.666;2023-04-27T01:42:40;67328.13;;;1.16;100.00
36354;BME280;22383;51.114;13.666;2023-04-27T01:45:08;67330.56;;;1.21;100.00
36354;BME280;22383;51.114;13.666;2023-04-27T01:47:36;67327.78;;;1.18;100.00
36354;BME280;22383;51.114;13.666;2023-04-27T01:50:04;67327.78;;;1.18;100.00
36354;BME280;22383;51.114;13.666;2023-04-27T01:52:32;67321.22;;;1.15;100.00
36354;BME280;22383;51.114;13.666;2023-04-27T01:55:01;67274.13;;;1.12;100.00
36354;BME280;22383;51.114;13.666;2023-04-27T01:57:29;67276.38;;;1.14;100.00
36354;BME280;22383;51.114;13.666;2023-04-27T01:59:56;67326.44;;;1.15;100.00
36354;BME280;22383;51.114;13.666;2023-04-27T02:02:23;67321.38;;;1.10;100.00
36354;BME280;22383;51.114;13.666;2023-04-27T02:04:51;67317.66;;;1.09;100.00
36354;BME280;22383;51.114;13.666;2023-04-27T02:07:18;67318.78;;;1.10;100.00
36354;BME280;22383;51.114;13.666;2023-04-27T02:09:46;67310.91;;;1.03;100.00
36354;BME280;22383;51.114;13.666;2023-04-27T02:12:13;67309.97;;;1.04;100.00
36354;BME280;22383;51.114;13.666;2023-04-27T02:14:40;67268.31;;;1.04;100.00
36354;BME280;22383;51.114;13.666;2023-04-27T02:17:07;67312.59;;;1.04;100.00
36354;BME280;22383;51.114;13.666;2023-04-27T02:19:34;67306.25;;;1.03;100.00
36354;BME280;22383;51.114;13.666;2023-04-27T02:22:02;67318.00;;;1.07;100.00
36354;BME280;22383;51.114;13.666;2023-04-27T02:24:29;67308.28;;;1.03;100.00
36354;BME280;22383;51.114;13.666;2023-04-27T02:26:56;67271.88;;;1.10;100.00
36354;BME280;22383;51.114;13.666;2023-04-27T02:29:28;67316.53;;;1.08;100.00
36354;BME280;22383;51.114;13.666;2023-04-27T02:31:56;67315.75;;;1.05;100.00
36354;BME280;22383;51.114;13.666;2023-04-27T02:34:23;67306.97;;;0.99;100.00
36354;BME280;22383;51.114;13.666;2023-04-27T02:36:50;67297.41;;;0.90;100.00
36354;BME280;22383;51.114;13.666;2023-04-27T02:39:18;67290.31;;;0.86;100.00
36354;BME280;22383;51.114;13.666;2023-04-27T02:41:45;67290.66;;;0.84;100.00
36354;BME280;22383;51.114;13.666;2023-04-27T02:44:14;67292.31;;;0.86;100.00
36354;BME280;22383;51.114;13.666;2023-04-27T02:46:41;67297.19;;;0.88;100.00
36354;BME280;22383;51.114;13.666;2023-04-27T02:49:08;67290.09;;;0.84;100.00
36354;BME280;22383;51.114;13.666;2023-04-27T02:51:35;67243.78;;;0.84;100.00
36354;BME280;22383;51.114;13.666;2023-04-27T02:54:03;67285.78;;;0.82;100.00
36354;BME280;22383;51.114;13.666;2023-04-27T02:56:30;67288.75;;;0.80;100.00
36354;BME280;22383;51.114;13.666;2023-04-27T02:58:58;67289.31;;;0.81;100.00
36354;BME280;22383;51.114;13.666;2023-04-27T03:01:26;67280.38;;;0.80;100.00
36354;BME280;22383;51.114;13.666;2023-04-27T03:03:53;67282.75;;;0.77;100.00
36354;BME280;22383;51.114;13.666;2023-04-27T03:06:21;67236.47;;;0.78;100.00
36354;BME280;22383;51.114;13.666;2023-04-27T03:08:48;67283.34;;;0.78;100.00
36354;BME280;22383;51.114;13.666;2023-04-27T03:11:15;67281.66;;;0.76;100.00
36354;BME280;22383;51.114;13.666;2023-04-27T03:13:42;67286.50;;;0.78;100.00
36354;BME280;22383;51.114;13.666;2023-04-27T03:16:09;67283.69;;;0.75;100.00
36354;BME280;22383;51.114;13.666;2023-04-27T03:18:38;67276.59;;;0.71;100.00
36354;BME280;22383;51.114;13.666;2023-04-27T03:21:09;67278.06;;;0.70;100.00
36354;BME280;22383;51.114;13.666;2023-04-27T03:23:38;67274.34;;;0.69;100.00
36354;BME280;22383;51.114;13.666;2023-04-27T03:26:09;67268.34;;;0.66;100.00
36354;BME280;22383;51.114;13.666;2023-04-27T03:28:38;67224.69;;;0.67;100.00
36354;BME280;22383;51.114;13.666;2023-04-27T03:31:11;67260.50;;;0.59;100.00
36354;BME280;22383;51.114;13.666;2023-04-27T03:33:39;67259.72;;;0.56;100.00
36354;BME280;22383;51.114;13.666;2023-04-27T03:36:07;67257.47;;;0.54;100.00
36354;BME280;22383;51.114;13.666;2023-04-27T03:38:34;67260.66;;;0.54;100.00
36354;BME280;22383;51.114;13.666;2023-04-27T03:41:02;67214.34;;;0.55;100.00
36354;BME280;22383;51.114;13.666;2023-04-27T03:43:30;67262.31;;;0.56;100.00
36354;BME280;22383;51.114;13.666;2023-04-27T03:45:57;67264.78;;;0.61;100.00
36354;BME280;22383;51.114;13.666;2023-04-27T03:48:25;67263.09;;;0.59;100.00
36354;BME280;22383;51.114;13.666;2023-04-27T03:50:54;67254.31;;;0.53;100.00
36354;BME280;22383;51.114;13.666;2023-04-27T03:53:21;67256.91;;;0.53;100.00
36354;BME280;22383;51.114;13.666;2023-04-27T03:55:49;67205.56;;;0.49;100.00
36354;BME280;22383;51.114;13.666;2023-04-27T03:58:17;67246.44;;;0.46;100.00
36354;BME280;22383;51.114;13.666;2023-04-27T04:01:03;67188.72;;;0.34;100.00
36354;BME280;22383;51.114;13.666;2023-04-27T04:03:30;67234.41;;;0.33;100.00
36354;BME280;22383;51.114;13.666;2023-04-27T04:05:57;67225.44;;;0.25;100.00
36354;BME280;22383;51.114;13.666;2023-04-27T04:08:24;67208.78;;;0.12;100.00
36354;BME280;22383;51.114;13.666;2023-04-27T04:10:52;67217.56;;;0.17;100.00
36354;BME280;22383;51.114;13.666;2023-04-27T04:13:19;67230.28;;;0.27;100.00
36354;BME280;22383;51.114;13.666;2023-04-27T04:15:46;67189.63;;;0.32;100.00
36354;BME280;22383;51.114;13.666;2023-04-27T04:18:13;67232.72;;;0.31;100.00
36354;BME280;22383;51.114;13.666;2023-04-27T04:20:41;67233.84;;;0.32;100.00
36354;BME280;22383;51.114;13.666;2023-04-27T04:23:08;67230.69;;;0.32;100.00
36354;BME280;22383;51.114;13.666;2023-04-27T04:25:35;67185.34;;;0.31;100.00
36354;BME280;22383;51.114;13.666;2023-04-27T04:28:03;67185.91;;;0.31;100.00
36354;BME280;22383;51.114;13.666;2023-04-27T04:30:30;67235.00;;;0.33;100.00
36354;BME280;22383;51.114;13.666;2023-04-27T04:32:58;67245.66;;;0.43;100.00
36354;BME280;22383;51.114;13.666;2023-04-27T04:35:25;67231.47;;;0.35;100.00
36354;BME280;22383;51.114;13.666;2023-04-27T04:37:52;67237.78;;;0.36;100.00
36354;BME280;22383;51.114;13.666;2023-04-27T04:40:20;67242.88;;;0.41;100.00
36354;BME280;22383;51.114;13.666;2023-04-27T04:42:47;67238.94;;;0.37;100.00
36354;BME280;22383;51.114;13.666;2023-04-27T04:45:14;67239.13;;;0.40;100.00
36354;BME280;22383;51.114;13.666;2023-04-27T04:47:41;67258.59;;;0.55;100.00
36354;BME280;22383;51.114;13.666;2023-04-27T04:50:10;67209.50;;;0.53;100.00
36354;BME280;22383;51.114;13.666;2023-04-27T04:52:37;67263.09;;;0.59;100.00
36354;BME280;22383;51.114;13.666;2023-04-27T04:55:05;67279.06;;;0.76;100.00
36354;BME280;22383;51.114;13.666;2023-04-27T04:57:32;67302.81;;;0.93;100.00
36354;BME280;22383;51.114;13.666;2023-04-27T04:59:59;67311.88;;;1.08;100.00
36354;BME280;22383;51.114;13.666;2023-04-27T05:02:27;67329.47;;;1.20;100.00
36354;BME280;22383;51.114;13.666;2023-04-27T05:04:55;67333.97;;;1.24;100.00
36354;BME280;22383;51.114;13.666;2023-04-27T05:07:23;67337.34;;;1.27;100.00
36354;BME280;22383;51.114;13.666;2023-04-27T05:09:51;67336.00;;;1.23;100.00
36354;BME280;22383;51.114;13.666;2023-04-27T05:12:18;67339.03;;;1.28;100.00
36354;BME280;22383;51.114;13.666;2023-04-27T05:14:45;67346.69;;;1.33;100.00
36354;BME280;22383;51.114;13.666;2023-04-27T05:17:12;67336.19;;;1.26;100.00
36354;BME280;22383;51.114;13.666;2023-04-27T05:19:39;67363.56;;;1.48;100.00
36354;BME280;22383;51.114;13.666;2023-04-27T05:22:06;67371.09;;;1.58;100.00
36354;BME280;22383;51.114;13.666;2023-04-27T05:24:33;67365.88;;;1.58;100.00
36354;BME280;22383;51.114;13.666;2023-04-27T05:27:00;67384.03;;;1.69;100.00
36354;BME280;22383;51.114;13.666;2023-04-27T05:29:28;67383.47;;;1.69;100.00
36354;BME280;22383;51.114;13.666;2023-04-27T05:31:55;67391.91;;;1.77;100.00
36354;BME280;22383;51.114;13.666;2023-04-27T05:34:23;67411.81;;;1.97;100.00
36354;BME280;22383;51.114;13.666;2023-04-27T05:36:50;67437.53;;;2.18;100.00
36354;BME280;22383;51.114;13.666;2023-04-27T05:39:17;67459.28;;;2.36;100.00
36354;BME280;22383;51.114;13.666;2023-04-27T05:41:44;67452.16;;;2.32;100.00
36354;BME280;22383;51.114;13.666;2023-04-27T05:44:11;67470.53;;;2.46;100.00
36354;BME280;22383;51.114;13.666;2023-04-27T05:46:38;67451.81;;;2.34;100.00
36354;BME280;22383;51.114;13.666;2023-04-27T05:49:05;67444.28;;;2.24;100.00
36354;BME280;22383;51.114;13.666;2023-04-27T05:51:32;67450.47;;;2.30;100.00
36354;BME280;22383;51.114;13.666;2023-04-27T05:53:59;67473.56;;;2.51;100.00
36354;BME280;22383;51.114;13.666;2023-04-27T05:56:28;67481.09;;;2.60;100.00
36354;BME280;22383;51.114;13.666;2023-04-27T05:58:55;67489.75;;;2.71;100.00
36354;BME280;22383;51.114;13.666;2023-04-27T06:01:22;67503.63;;;2.81;100.00
36354;BME280;22383;51.114;13.666;2023-04-27T06:03:49;67546.63;;;3.22;100.00
36354;BME280;22383;51.114;13.666;2023-04-27T06:06:17;67604.13;;;3.75;100.00
36354;BME280;22383;51.114;13.666;2023-04-27T06:08:44;67633.06;;;3.96;100.00
36354;BME280;22383;51.114;13.666;2023-04-27T06:11:12;67624.44;;;3.93;100.00
36354;BME280;22383;51.114;13.666;2023-04-27T06:13:39;67624.03;;;3.88;100.00
36354;BME280;22383;51.114;13.666;2023-04-27T06:16:07;67628.91;;;3.90;100.00
36354;BME280;22383;51.114;13.666;2023-04-27T06:18:34;67645.44;;;4.08;100.00
36354;BME280;22383;51.114;13.666;2023-04-27T06:21:01;67683.81;;;4.43;100.00
36354;BME280;22383;51.114;13.666;2023-04-27T06:23:28;67691.69;;;4.50;100.00
36354;BME280;22383;51.114;13.666;2023-04-27T06:25:56;67726.13;;;4.81;100.00
36354;BME280;22383;51.114;13.666;2023-04-27T06:28:24;67752.28;;;5.07;100.00
36354;BME280;22383;51.114;13.666;2023-04-27T06:30:52;67783.13;;;5.33;100.00
36354;BME280;22383;51.114;13.666;2023-04-27T06:33:19;67795.19;;;5.46;100.00
36354;BME280;22383;51.114;13.666;2023-04-27T06:35:46;67787.66;;;5.37;100.00
36354;BME280;22383;51.114;13.666;2023-04-27T06:38:13;67785.75;;;5.33;100.00
36354;BME280;22383;51.114;13.666;2023-04-27T06:40:40;67784.81;;;5.35;100.00
36354;BME280;22383;51.114;13.666;2023-04-27T06:43:07;67774.09;;;5.25;100.00
36354;BME280;22383;51.114;13.666;2023-04-27T06:45:34;67815.88;;;5.63;100.00
36354;BME280;22383;51.114;13.666;2023-04-27T06:48:02;67857.28;;;5.96;100.00
36354;BME280;22383;51.114;13.666;2023-04-27T06:50:29;67869.00;;;6.11;100.00
36354;BME280;22383;51.114;13.666;2023-04-27T06:52:56;67925.69;;;6.65;100.00
36354;BME280;22383;51.114;13.666;2023-04-27T06:55:23;67915.31;;;6.53;100.00
36354;BME280;22383;51.114;13.666;2023-04-27T06:57:51;67927.41;;;6.67;100.00
36354;BME280;22383;51.114;13.666;2023-04-27T07:00:18;67989.56;;;7.23;100.00
36354;BME280;22383;51.114;13.666;2023-04-27T07:02:45;68046.13;;;7.74;100.00
36354;BME280;22383;51.114;13.666;2023-04-27T07:05:13;68078.56;;;8.06;100.00
36354;BME280;22383;51.114;13.666;2023-04-27T07:07:40;68033.88;;;7.66;100.00
36354;BME280;22383;51.114;13.666;2023-04-27T07:10:07;68048.38;;;7.76;100.00
36354;BME280;22383;51.114;13.666;2023-04-27T07:12:36;68120.84;;;8.42;100.00
36354;BME280;22383;51.114;13.666;2023-04-27T07:15:04;68176.31;;;8.93;100.00
36354;BME280;22383;51.114;13.666;2023-04-27T07:17:35;68209.72;;;9.23;98.32
36354;BME280;22383;51.114;13.666;2023-04-27T07:20:04;68308.84;;;10.13;93.55
36354;BME280;22383;51.114;13.666;2023-04-27T07:22:32;68185.00;;;9.03;94.32
36354;BME280;22383;51.114;13.666;2023-04-27T07:25:00;68197.06;;;9.16;93.49
36354;BME280;22383;51.114;13.666;2023-04-27T07:27:27;68259.19;;;9.70;93.79
36354;BME280;22383;51.114;13.666;2023-04-27T07:29:55;68241.81;;;9.50;94.63
36354;BME280;22383;51.114;13.666;2023-04-27T07:32:22;68224.81;;;9.34;99.15
36354;BME280;22383;51.114;13.666;2023-04-27T07:34:50;68187.28;;;9.05;95.78
36354;BME280;22383;51.114;13.666;2023-04-27T07:37:21;68218.59;;;9.28;94.97
36354;BME280;22383;51.114;13.666;2023-04-27T07:39:49;68239.00;;;9.47;96.53
36354;BME280;22383;51.114;13.666;2023-04-27T07:42:18;68184.25;;;9.00;99.10
36354;BME280;22383;51.114;13.666;2023-04-27T07:44:45;68181.59;;;9.00;100.00
36354;BME280;22383;51.114;13.666;2023-04-27T07:47:13;68175.56;;;8.89;98.35
36354;BME280;22383;51.114;13.666;2023-04-27T07:49:40;68203.28;;;9.15;99.25
36354;BME280;22383;51.114;13.666;2023-04-27T07:52:07;68119.50;;;8.39;100.00
36354;BME280;22383;51.114;13.666;2023-04-27T07:54:34;68110.63;;;8.33;100.00
36354;BME280;22383;51.114;13.666;2023-04-27T07:57:07;68087.59;;;8.07;100.00
36354;BME280;22383;51.114;13.666;2023-04-27T07:59:36;68082.72;;;8.05;100.00
36354;BME280;22383;51.114;13.666;2023-04-27T08:02:04;68089.31;;;8.16;100.00
36354;BME280;22383;51.114;13.666;2023-04-27T08:04:44;68083.81;;;8.06;100.00
36354;BME280;22383;51.114;13.666;2023-04-27T08:07:16;68142.53;;;8.64;100.00
36354;BME280;22383;51.114;13.666;2023-04-27T08:09:44;68206.53;;;9.22;100.00
36354;BME280;22383;51.114;13.666;2023-04-27T08:12:11;68222.16;;;9.34;98.42
36354;BME280;22383;51.114;13.666;2023-04-27T08:14:38;68236.72;;;9.45;98.19
36354;BME280;22383;51.114;13.666;2023-04-27T08:17:06;68183.66;;;8.99;94.95
36354;BME280;22383;51.114;13.666;2023-04-27T08:19:33;68237.47;;;9.48;96.25
36354;BME280;22383;51.114;13.666;2023-04-27T08:22:01;68200.84;;;9.17;97.13
36354;BME280;22383;51.114;13.666;2023-04-27T08:24:28;68230.13;;;9.41;98.19
36354;BME280;22383;51.114;13.666;2023-04-27T08:26:55;68272.78;;;9.82;95.91
36354;BME280;22383;51.114;13.666;2023-04-27T08:29:22;68280.16;;;9.89;98.52
36354;BME280;22383;51.114;13.666;2023-04-27T08:31:58;68239.00;;;9.47;98.30
36354;BME280;22383;51.114;13.666;2023-04-27T08:34:26;68241.81;;;9.50;94.56
36354;BME280;22383;51.114;13.666;2023-04-27T08:36:54;68273.53;;;9.78;92.97
36354;BME280;22383;51.114;13.666;2023-04-27T08:39:23;68336.66;;;10.38;89.18
36354;BME280;22383;51.114;13.666;2023-04-27T08:41:51;68383.16;;;10.80;89.96
36354;BME280;22383;51.114;13.666;2023-04-27T08:44:18;68394.84;;;10.88;90.29
36354;BME280;22383;51.114;13.666;2023-04-27T08:46:49;68368.78;;;10.65;95.83
36354;BME280;22383;51.114;13.666;2023-04-27T08:49:17;68380.69;;;10.75;85.26
36354;BME280;22383;51.114;13.666;2023-04-27T08:51:45;68452.91;;;11.43;90.58
36354;BME280;22383;51.114;13.666;2023-04-27T08:54:12;68423.41;;;11.16;81.38
36354;BME280;22383;51.114;13.666;2023-04-27T08:56:41;68455.94;;;11.48;77.20
36354;BME280;22383;51.114;13.666;2023-04-27T08:59:14;68464.25;;;11.53;75.92
36354;BME280;22383;51.114;13.666;2023-04-27T09:01:45;68447.81;;;11.39;74.85
36354;BME280;22383;51.114;13.666;2023-04-27T09:04:15;68462.56;;;11.52;77.06
36354;BME280;22383;51.114;13.666;2023-04-27T09:06:44;68417.72;;;11.11;76.62
36354;BME280;22383;51.114;13.666;2023-04-27T09:09:22;68428.34;;;11.19;78.40
36354;BME280;22383;51.114;13.666;2023-04-27T09:11:56;68458.00;;;11.48;73.07
36354;BME280;22383;51.114;13.666;2023-04-27T09:14:24;68518.19;;;12.02;67.58
36354;BME280;22383;51.114;13.666;2023-04-27T09:16:55;68468.25;;;11.57;74.07
36354;BME280;22383;51.114;13.666;2023-04-27T09:19:27;68456.31;;;11.46;70.84
36354;BME280;22383;51.114;13.666;2023-04-27T09:22:13;68377.66;;;10.77;74.47
36354;BME280;22383;51.114;13.666;2023-04-27T09:24:53;68320.56;;;10.21;78.10
36354;BME280;22383;51.114;13.666;2023-04-27T09:27:21;68210.09;;;9.21;79.01
36354;BME280;22383;51.114;13.666;2023-04-27T09:29:48;68249.94;;;9.59;85.41
36354;BME280;22383;51.114;13.666;2023-04-27T09:32:18;68357.44;;;10.54;75.21
36354;BME280;22383;51.114;13.666;2023-04-27T09:34:50;68472.22;;;11.61;79.05
36354;BME280;22383;51.114;13.666;2023-04-27T09:37:17;68433.03;;;11.25;74.95
36354;BME280;22383;51.114;13.666;2023-04-27T09:39:52;68350.06;;;10.48;72.00
36354;BME280;22383;51.114;13.666;2023-04-27T09:42:26;68289.03;;;9.95;77.76
36354;BME280;22383;51.114;13.666;2023-04-27T09:45:01;68213.88;;;9.29;77.00
36354;BME280;22383;51.114;13.666;2023-04-27T09:47:29;68175.19;;;8.92;74.77
36354;BME280;22383;51.114;13.666;2023-04-27T09:49:58;68164.22;;;8.79;79.23
36354;BME280;22383;51.114;13.666;2023-04-27T09:52:26;68131.41;;;8.49;73.38
36354;BME280;22383;51.114;13.666;2023-04-27T09:54:57;68146.31;;;8.65;79.45
36354;BME280;22383;51.114;13.666;2023-04-27T09:57:38;68129.31;;;8.50;81.46
36354;BME280;22383;51.114;13.666;2023-04-27T10:00:25;68116.28;;;8.38;82.73
36354;BME280;22383;51.114;13.666;2023-04-27T10:03:21;68104.03;;;8.29;80.98
36354;BME280;22383;51.114;13.666;2023-04-27T10:09:03;68350.06;;;10.55;87.65
36354;BME280;22383;51.114;13.666;2023-04-27T10:11:37;68478.44;;;11.66;77.64
36354;BME280;22383;51.114;13.666;2023-04-27T10:14:07;68383.34;;;10.83;74.66
36354;BME280;22383;51.114;13.666;2023-04-27T10:16:43;68336.47;;;10.35;67.68
36354;BME280;22383;51.114;13.666;2023-04-27T10:19:14;68403.38;;;10.96;70.61
36354;BME280;22383;51.114;13.666;2023-04-27T10:21:55;68458.00;;;11.48;64.03
36354;BME280;22383;51.114;13.666;2023-04-27T10:24:36;68505.69;;;11.91;64.01
36354;BME280;22383;51.114;13.666;2023-04-27T10:27:09;68444.41;;;11.35;66.07
36354;BME280;22383;51.114;13.666;2023-04-27T10:29:42;68297.53;;;10.02;66.68
36354;BME280;22383;51.114;13.666;2023-04-27T10:32:22;68218.41;;;9.33;68.74
36354;BME280;22383;51.114;13.666;2023-04-27T10:34:51;68183.66;;;8.99;70.04
36354;BME280;22383;51.114;13.666;2023-04-27T10:37:41;68199.31;;;9.11;74.23
36354;BME280;22383;51.114;13.666;2023-04-27T10:40:11;68163.47;;;8.76;75.57
36354;BME280;22383;51.114;13.666;2023-04-27T10:42:40;68128.38;;;8.51;78.90
36354;BME280;22383;51.114;13.666;2023-04-27T10:45:11;68151.56;;;8.65;80.30
36354;BME280;22383;51.114;13.666;2023-04-27T10:47:43;68137.06;;;8.55;79.37
36354;BME280;22383;51.114;13.666;2023-04-27T10:50:12;68146.50;;;8.61;79.59
36354;BME280;22383;51.114;13.666;2023-04-27T10:52:42;68173.09;;;8.85;82.51
36354;BME280;22383;51.114;13.666;2023-04-27T10:55:16;68197.06;;;9.09;80.12
36354;BME280;22383;51.114;13.666;2023-04-27T10:57:52;68218.03;;;9.28;80.76
36354;BME280;22383;51.114;13.666;2023-04-27T11:02:56;68243.13;;;9.53;76.55
36354;BME280;22383;51.114;13.666;2023-04-27T11:05:25;68304.13;;;10.06;69.85
36354;BME280;22383;51.114;13.666;2023-04-27T11:08:13;68300.00;;;10.07;67.87
36354;BME280;22383;51.114;13.666;2023-04-27T11:10:46;68253.53;;;9.65;73.03
36354;BME280;22383;51.114;13.666;2023-04-27T11:13:22;68271.25;;;9.76;68.86
36354;BME280;22383;51.114;13.666;2023-04-27T11:15:56;68427.75;;;11.18;77.79
36354;BME280;22383;51.114;13.666;2023-04-27T11:18:26;68539.19;;;12.21;69.36
36354;BME280;22383;51.114;13.666;2023-04-27T11:21:12;68607.31;;;12.83;69.40
36354;BME280;22383;51.114;13.666;2023-04-27T11:23:42;68601.63;;;12.78;67.72
36354;BME280;22383;51.114;13.666;2023-04-27T11:26:13;68570.22;;;12.47;65.57
36354;BME280;22383;51.114;13.666;2023-04-27T11:29:02;68494.88;;;11.81;66.64
36354;BME280;22383;51.114;13.666;2023-04-27T11:31:49;68391.47;;;10.85;64.91
36354;BME280;22383;51.114;13.666;2023-04-27T11:34:23;68300.16;;;10.02;64.53
36354;BME280;22383;51.114;13.666;2023-04-27T11:39:43;68298.28;;;9.98;71.86
36354;BME280;22383;51.114;13.666;2023-04-27T11:42:20;68304.13;;;10.06;67.50
36354;BME280;22383;51.114;13.666;2023-04-27T11:44:56;68310.38;;;10.12;72.12
36354;BME280;22383;51.114;13.666;2023-04-27T11:47:27;68418.13;;;11.09;67.81
36354;BME280;22383;51.114;13.666;2023-04-27T11:49:59;68471.25;;;11.62;71.63
36354;BME280;22383;51.114;13.666;2023-04-27T11:52:39;68472.41;;;11.56;65.86
36354;BME280;22383;51.114;13.666;2023-04-27T11:55:07;68468.03;;;11.54;66.68
36354;BME280;22383;51.114;13.666;2023-04-27T11:57:41;68416.03;;;11.10;64.50
36354;BME280;22383;51.114;13.666;2023-04-27T12:00:09;68430.78;;;11.23;65.73
36354;BME280;22383;51.114;13.666;2023-04-27T12:02:43;68443.06;;;11.32;70.47
36354;BME280;22383;51.114;13.666;2023-04-27T12:05:13;68423.78;;;11.14;63.94
36354;BME280;22383;51.114;13.666;2023-04-27T12:07:44;68444.41;;;11.35;64.07
36354;BME280;22383;51.114;13.666;2023-04-27T12:10:14;68416.41;;;11.08;69.89
36354;BME280;22383;51.114;13.666;2023-04-27T12:12:48;68403.00;;;10.98;69.13
36354;BME280;22383;51.114;13.666;2023-04-27T12:15:15;68385.59;;;10.85;71.30
36354;BME280;22383;51.114;13.666;2023-04-27T12:17:45;68352.53;;;10.52;70.00
36354;BME280;22383;51.114;13.666;2023-04-27T12:20:13;68344.97;;;10.43;70.82
36354;BME280;22383;51.114;13.666;2023-04-27T12:22:43;68359.72;;;10.56;69.31
36354;BME280;22383;51.114;13.666;2023-04-27T12:25:23;68410.19;;;11.02;71.73
36354;BME280;22383;51.114;13.666;2023-04-27T12:27:51;68405.81;;;11.01;68.98
36354;BME280;22383;51.114;13.666;2023-04-27T12:30:18;68447.25;;;11.38;71.81
36354;BME280;22383;51.114;13.666;2023-04-27T12:32:47;68468.03;;;11.54;68.40
36354;BME280;22383;51.114;13.666;2023-04-27T12:35:15;68527.09;;;12.15;70.42
36354;BME280;22383;51.114;13.666;2023-04-27T12:37:42;68517.22;;;12.04;71.77
36354;BME280;22383;51.114;13.666;2023-04-27T12:40:11;68498.47;;;11.80;66.33
36354;BME280;22383;51.114;13.666;2023-04-27T12:42:43;68548.84;;;12.30;72.01
36354;BME280;22383;51.114;13.666;2023-04-27T12:45:13;68572.13;;;12.51;74.46
36354;BME280;22383;51.114;13.666;2023-04-27T12:47:43;68484.69;;;11.72;64.48
36354;BME280;22383;51.114;13.666;2023-04-27T12:50:35;68371.22;;;10.69;67.23
36354;BME280;22383;51.114;13.666;2023-04-27T12:53:02;68327.78;;;10.32;67.33
36354;BME280;22383;51.114;13.666;2023-04-27T12:55:29;68337.03;;;10.36;68.38
36354;BME280;22383;51.114;13.666;2023-04-27T12:58:01;68422.09;;;11.13;65.04
36354;BME280;22383;51.114;13.666;2023-04-27T13:00:31;68482.59;;;11.65;66.29
36354;BME280;22383;51.114;13.666;2023-04-27T13:03:02;68456.69;;;11.44;64.66
36354;BME280;22383;51.114;13.666;2023-04-27T13:05:33;68429.28;;;11.24;61.18
36354;BME280;22383;51.114;13.666;2023-04-27T13:08:12;68473.53;;;11.64;66.18
36354;BME280;22383;51.114;13.666;2023-04-27T13:10:46;68508.53;;;11.94;66.75
36354;BME280;22383;51.114;13.666;2023-04-27T13:13:21;68579.31;;;12.55;66.51